sensor_id;sensor_type;location;lat;lon;timestamp;pressure;altitude;pressure_sealevel;temperature;humidity
31585;BME280;18191;51.288;12.390;2022-10-16T00:04:25;49116.25;;;-144.47;89.76
31585;BME280;18191;51.288;12.390;2022-10-16T00:09:16;49132.16;;;-144.47;90.15
31585;BME280;18191;51.288;12.390;2022-10-16T00:14:07;49156.03;;;-144.47;90.77
31585;BME280;18191;51.288;12.390;2022-10-16T00:18:58;49162.00;;;-144.47;90.68
31585;BME280;18191;51.288;12.390;2022-10-16T00:29:07;49193.84;;;-144.47;90.98
31585;BME280;18191;51.288;12.390;2022-10-16T00:33:58;49164.00;;;-144.47;90.73
31585;BME280;18191;51.288;12.390;2022-10-16T00:38:52;49167.97;;;-144.47;89.65
31585;BME280;18191;51.288;12.390;2022-10-16T00:48:35;49148.09;;;-144.47;88.90
31585;BME280;18191;51.288;12.390;2022-10-16T00:53:26;49156.03;;;-144.47;88.51
31585;BME280;18191;51.288;12.390;2022-10-16T00:58:17;49185.88;;;-144.47;88.27
31585;BME280;18191;51.288;12.390;2022-10-16T01:08:22;49132.16;;;-144.47;88.17
31585;BME280;18191;51.288;12.390;2022-10-16T01:13:21;49150.06;;;-144.47;87.97
31585;BME280;18191;51.288;12.390;2022-10-16T01:18:16;49164.00;;;-144.47;88.41
31585;BME280;18191;51.288;12.390;2022-10-16T01:23:10;49132.16;;;-144.47;87.88
31585;BME280;18191;51.288;12.390;2022-10-16T01:28:05;49175.94;;;-144.47;86.06
31585;BME280;18191;51.288;12.390;2022-10-16T01:33:01;49148.09;;;-144.47;86.88
31585;BME280;18191;51.288;12.390;2022-10-16T01:38:38;49116.25;;;-144.47;88.35
31585;BME280;18191;51.288;12.390;2022-10-16T01:43:04;49164.00;;;-144.47;89.08
31585;BME280;18191;51.288;12.390;2022-10-16T01:47:56;49169.97;;;-144.47;89.34
31585;BME280;18191;51.288;12.390;2022-10-16T01:52:49;49160.03;;;-144.47;89.47
31585;BME280;18191;51.288;12.390;2022-10-16T01:57:46;49175.94;;;-144.47;89.80
31585;BME280;18191;51.288;12.390;2022-10-16T02:02:39;49175.94;;;-144.47;90.49
31585;BME280;18191;51.288;12.390;2022-10-16T02:07:31;49152.06;;;-144.47;92.32
31585;BME280;18191;51.288;12.390;2022-10-16T02:17:16;49179.91;;;-144.47;93.27
31585;BME280;18191;51.288;12.390;2022-10-16T02:22:08;49152.06;;;-144.47;93.78
31585;BME280;18191;51.288;12.390;2022-10-16T02:31:58;49175.94;;;-144.47;93.17
31585;BME280;18191;51.288;12.390;2022-10-16T02:36:49;49175.94;;;-144.47;92.91
31585;BME280;18191;51.288;12.390;2022-10-16T02:41:40;49179.91;;;-144.47;92.75
31585;BME280;18191;51.288;12.390;2022-10-16T02:46:30;49140.13;;;-144.47;94.50
31585;BME280;18191;51.288;12.390;2022-10-16T02:51:20;49138.16;;;-144.47;95.70
31585;BME280;18191;51.288;12.390;2022-10-16T02:56:10;49179.91;;;-144.47;95.48
31585;BME280;18191;51.288;12.390;2022-10-16T03:01:01;49148.09;;;-144.47;95.86
31585;BME280;18191;51.288;12.390;2022-10-16T03:05:51;49164.00;;;-144.47;96.02
31585;BME280;18191;51.288;12.390;2022-10-16T03:10:41;49120.25;;;-144.47;95.65
31585;BME280;18191;51.288;12.390;2022-10-16T03:15:32;49179.91;;;-144.47;97.18
31585;BME280;18191;51.288;12.390;2022-10-16T03:20:22;49166.00;;;-144.47;97.27
31585;BME280;18191;51.288;12.390;2022-10-16T03:25:12;49183.91;;;-144.47;96.98
31585;BME280;18191;51.288;12.390;2022-10-16T03:30:02;49144.09;;;-144.47;96.36
31585;BME280;18191;51.288;12.390;2022-10-16T03:34:53;49183.91;;;-144.47;96.45
31585;BME280;18191;51.288;12.390;2022-10-16T03:39:44;49164.00;;;-144.47;96.04
31585;BME280;18191;51.288;12.390;2022-10-16T03:44:34;49175.94;;;-144.47;96.09
31585;BME280;18191;51.288;12.390;2022-10-16T03:49:24;49132.16;;;-144.47;95.93
31585;BME280;18191;51.288;12.390;2022-10-16T03:54:14;49183.91;;;-144.47;95.80
31585;BME280;18191;51.288;12.390;2022-10-16T03:59:05;49154.06;;;-144.47;95.61
31585;BME280;18191;51.288;12.390;2022-10-16T04:03:55;49154.06;;;-144.47;95.61
31585;BME280;18191;51.288;12.390;2022-10-16T04:08:45;49167.97;;;-144.47;95.66
31585;BME280;18191;51.288;12.390;2022-10-16T04:13:35;49128.19;;;-144.47;95.51
31585;BME280;18191;51.288;12.390;2022-10-16T04:18:25;49124.22;;;-144.47;95.31
31585;BME280;18191;51.288;12.390;2022-10-16T04:23:17;49167.97;;;-144.47;95.08
31585;BME280;18191;51.288;12.390;2022-10-16T04:28:07;49171.97;;;-144.47;95.25
31585;BME280;18191;51.288;12.390;2022-10-16T04:32:57;49144.09;;;-144.47;95.45
31585;BME280;18191;51.288;12.390;2022-10-16T04:37:48;49146.09;;;-144.47;95.66
31585;BME280;18191;51.288;12.390;2022-10-16T04:42:38;49152.06;;;-144.47;95.34
31585;BME280;18191;51.288;12.390;2022-10-16T04:47:28;49150.06;;;-144.47;95.78
31585;BME280;18191;51.288;12.390;2022-10-16T04:52:18;49175.94;;;-144.47;96.04
31585;BME280;18191;51.288;12.390;2022-10-16T04:57:09;49164.00;;;-144.47;96.07
31585;BME280;18191;51.288;12.390;2022-10-16T05:01:59;49132.16;;;-144.47;95.79
31585;BME280;18191;51.288;12.390;2022-10-16T05:06:49;49154.06;;;-144.47;95.94
31585;BME280;18191;51.288;12.390;2022-10-16T05:11:39;49175.94;;;-144.47;94.79
31585;BME280;18191;51.288;12.390;2022-10-16T05:16:29;49140.13;;;-144.47;95.46
31585;BME280;18191;51.288;12.390;2022-10-16T05:21:20;49148.09;;;-144.47;95.45
31585;BME280;18191;51.288;12.390;2022-10-16T05:26:10;49144.09;;;-144.47;95.35
31585;BME280;18191;51.288;12.390;2022-10-16T05:31:05;49183.91;;;-144.47;95.34
31585;BME280;18191;51.288;12.390;2022-10-16T05:35:56;49175.94;;;-144.47;95.21
31585;BME280;18191;51.288;12.390;2022-10-16T05:40:52;49175.94;;;-144.47;96.90
31585;BME280;18191;51.288;12.390;2022-10-16T05:45:42;49142.13;;;-144.47;96.98
31585;BME280;18191;51.288;12.390;2022-10-16T05:50:32;49146.09;;;-144.47;97.29
31585;BME280;18191;51.288;12.390;2022-10-16T05:55:23;49185.88;;;-144.47;97.60
31585;BME280;18191;51.288;12.390;2022-10-16T06:00:13;49191.84;;;-144.47;97.02
31585;BME280;18191;51.288;12.390;2022-10-16T06:05:03;49128.19;;;-144.47;96.33
31585;BME280;18191;51.288;12.390;2022-10-16T06:09:53;49166.00;;;-144.47;96.33
31585;BME280;18191;51.288;12.390;2022-10-16T06:14:44;49173.94;;;-144.47;95.68
31585;BME280;18191;51.288;12.390;2022-10-16T06:19:34;49167.97;;;-144.47;95.39
31585;BME280;18191;51.288;12.390;2022-10-16T06:24:24;49148.09;;;-144.47;94.39
31585;BME280;18191;51.288;12.390;2022-10-16T06:29:15;49181.91;;;-144.47;94.27
31585;BME280;18191;51.288;12.390;2022-10-16T06:34:05;49164.00;;;-144.47;93.76
31585;BME280;18191;51.288;12.390;2022-10-16T06:38:59;49124.22;;;-144.47;94.37
31585;BME280;18191;51.288;12.390;2022-10-16T06:43:49;49199.81;;;-144.47;92.47
31585;BME280;18191;51.288;12.390;2022-10-16T06:48:39;49171.97;;;-144.47;91.92
31585;BME280;18191;51.288;12.390;2022-10-16T06:53:30;49175.94;;;-144.47;92.27
31585;BME280;18191;51.288;12.390;2022-10-16T06:58:21;49169.97;;;-144.47;91.87
31585;BME280;18191;51.288;12.390;2022-10-16T07:03:12;49191.84;;;-144.47;91.07
31585;BME280;18191;51.288;12.390;2022-10-16T07:08:02;49195.84;;;-144.47;89.89
31585;BME280;18191;51.288;12.390;2022-10-16T07:12:54;49108.31;;;-144.47;89.92
31585;BME280;18191;51.288;12.390;2022-10-16T07:17:45;49160.03;;;-144.47;88.40
31585;BME280;18191;51.288;12.390;2022-10-16T07:22:35;49156.03;;;-144.47;87.53
31585;BME280;18191;51.288;12.390;2022-10-16T07:27:25;49164.00;;;-144.47;87.42
31585;BME280;18191;51.288;12.390;2022-10-16T07:32:16;49167.97;;;-144.47;84.78
31585;BME280;18191;51.288;12.390;2022-10-16T07:37:06;49179.91;;;-144.47;82.69
31585;BME280;18191;51.288;12.390;2022-10-16T07:41:56;49140.13;;;-144.47;81.92
31585;BME280;18191;51.288;12.390;2022-10-16T07:46:47;49203.78;;;-144.47;81.59
31585;BME280;18191;51.288;12.390;2022-10-16T07:51:37;49142.13;;;-144.47;78.77
31585;BME280;18191;51.288;12.390;2022-10-16T07:56:28;49203.78;;;-144.47;78.39
31585;BME280;18191;51.288;12.390;2022-10-16T08:01:20;49140.13;;;-144.47;75.93
31585;BME280;18191;51.288;12.390;2022-10-16T08:06:10;49140.13;;;-144.47;73.91
31585;BME280;18191;51.288;12.390;2022-10-16T08:11:01;49152.06;;;-144.47;72.84
31585;BME280;18191;51.288;12.390;2022-10-16T08:15:54;49197.81;;;-144.47;71.30
31585;BME280;18191;51.288;12.390;2022-10-16T08:20:44;49150.06;;;-144.47;70.81
31585;BME280;18191;51.288;12.390;2022-10-16T08:25:35;49140.13;;;-144.47;71.50
31585;BME280;18191;51.288;12.390;2022-10-16T08:30:26;49146.09;;;-144.47;70.78
31585;BME280;18191;51.288;12.390;2022-10-16T08:35:16;49156.03;;;-144.47;69.85
31585;BME280;18191;51.288;12.390;2022-10-16T08:40:07;49199.81;;;-144.47;68.82
31585;BME280;18191;51.288;12.390;2022-10-16T08:45:05;49124.22;;;-144.47;67.51
31585;BME280;18191;51.288;12.390;2022-10-16T08:50:10;49156.03;;;-144.47;66.35
31585;BME280;18191;51.288;12.390;2022-10-16T08:55:00;49152.06;;;-144.47;64.70
31585;BME280;18191;51.288;12.390;2022-10-16T08:59:52;49138.16;;;-144.47;63.60
31585;BME280;18191;51.288;12.390;2022-10-16T09:09:38;49140.13;;;-144.47;64.32
31585;BME280;18191;51.288;12.390;2022-10-16T09:19:35;49128.19;;;-144.47;64.30
31585;BME280;18191;51.288;12.390;2022-10-16T09:24:29;49120.25;;;-144.47;64.84
31585;BME280;18191;51.288;12.390;2022-10-16T09:29:20;49128.19;;;-144.47;66.12
31585;BME280;18191;51.288;12.390;2022-10-16T09:34:20;49088.41;;;-144.47;64.88
31585;BME280;18191;51.288;12.390;2022-10-16T09:39:12;49112.28;;;-144.47;62.93
31585;BME280;18191;51.288;12.390;2022-10-16T09:44:03;49144.09;;;-144.47;61.85
31585;BME280;18191;51.288;12.390;2022-10-16T09:49:02;49152.06;;;-144.47;63.02
31585;BME280;18191;51.288;12.390;2022-10-16T09:53:54;49112.28;;;-144.47;63.84
31585;BME280;18191;51.288;12.390;2022-10-16T09:58:49;49104.31;;;-144.47;64.17
31585;BME280;18191;51.288;12.390;2022-10-16T10:03:40;49171.97;;;-144.47;63.36
31585;BME280;18191;51.288;12.390;2022-10-16T10:08:31;49140.13;;;-144.47;60.24
31585;BME280;18191;51.288;12.390;2022-10-16T10:13:21;49104.31;;;-144.47;60.03
31585;BME280;18191;51.288;12.390;2022-10-16T10:18:19;49092.38;;;-144.47;59.88
31585;BME280;18191;51.288;12.390;2022-10-16T10:23:21;49124.22;;;-144.47;61.33
31585;BME280;18191;51.288;12.390;2022-10-16T11:03:50;49144.09;;;-144.47;60.30
31585;BME280;18191;51.288;12.390;2022-10-16T11:08:45;49116.25;;;-144.47;60.91
31585;BME280;18191;51.288;12.390;2022-10-16T11:13:39;49140.13;;;-144.47;60.84
31585;BME280;18191;51.288;12.390;2022-10-16T11:19:19;49118.25;;;-144.47;61.54
31585;BME280;18191;51.288;12.390;2022-10-16T11:23:46;49150.06;;;-144.47;61.51
31585;BME280;18191;51.288;12.390;2022-10-16T11:28:48;49120.25;;;-144.47;60.92
31585;BME280;18191;51.288;12.390;2022-10-16T11:33:40;49126.22;;;-144.47;59.88
31585;BME280;18191;51.288;12.390;2022-10-16T11:43:41;49134.16;;;-144.47;58.27
31585;BME280;18191;51.288;12.390;2022-10-16T11:58:19;49128.19;;;-144.47;57.62
31585;BME280;18191;51.288;12.390;2022-10-16T12:08:10;49100.34;;;-144.47;57.80
31585;BME280;18191;51.288;12.390;2022-10-16T12:13:01;49144.09;;;-144.47;57.96
31585;BME280;18191;51.288;12.390;2022-10-16T12:17:52;49096.38;;;-144.47;58.15
31585;BME280;18191;51.288;12.390;2022-10-16T12:22:50;49098.34;;;-144.47;59.18
31585;BME280;18191;51.288;12.390;2022-10-16T12:27:40;49112.28;;;-144.47;61.35
31585;BME280;18191;51.288;12.390;2022-10-16T12:37:26;49114.28;;;-144.47;62.20
31585;BME280;18191;51.288;12.390;2022-10-16T12:42:30;49140.13;;;-144.47;61.50
31585;BME280;18191;51.288;12.390;2022-10-16T12:52:36;49148.09;;;-144.47;61.90
31585;BME280;18191;51.288;12.390;2022-10-16T12:57:33;49140.13;;;-144.47;63.14
31585;BME280;18191;51.288;12.390;2022-10-16T13:12:37;49175.94;;;-144.47;64.25
31585;BME280;18191;51.288;12.390;2022-10-16T13:17:45;49167.97;;;-144.47;62.97
31585;BME280;18191;51.288;12.390;2022-10-16T13:22:46;49116.25;;;-144.47;64.65
31585;BME280;18191;51.288;12.390;2022-10-16T13:27:59;49173.94;;;-144.47;65.36
31585;BME280;18191;51.288;12.390;2022-10-16T13:32:52;49169.97;;;-144.47;64.63
31585;BME280;18191;51.288;12.390;2022-10-16T13:37:45;49102.34;;;-144.47;65.14
31585;BME280;18191;51.288;12.390;2022-10-16T13:42:35;49112.28;;;-144.47;63.19
31585;BME280;18191;51.288;12.390;2022-10-16T13:47:26;49124.22;;;-144.47;62.19
31585;BME280;18191;51.288;12.390;2022-10-16T13:52:18;49134.16;;;-144.47;60.91
31585;BME280;18191;51.288;12.390;2022-10-16T13:57:12;49154.06;;;-144.47;61.17
31585;BME280;18191;51.288;12.390;2022-10-16T14:02:05;49144.09;;;-144.47;64.01
31585;BME280;18191;51.288;12.390;2022-10-16T14:06:58;49160.03;;;-144.47;64.85
31585;BME280;18191;51.288;12.390;2022-10-16T14:11:50;49148.09;;;-144.47;65.29
31585;BME280;18191;51.288;12.390;2022-10-16T14:16:42;49128.19;;;-144.47;65.75
31585;BME280;18191;51.288;12.390;2022-10-16T14:21:33;49150.06;;;-144.47;66.54
31585;BME280;18191;51.288;12.390;2022-10-16T14:26:27;49124.22;;;-144.47;66.99
31585;BME280;18191;51.288;12.390;2022-10-16T14:32:20;49160.03;;;-144.47;67.24
31585;BME280;18191;51.288;12.390;2022-10-16T14:36:37;49154.06;;;-144.47;66.99
31585;BME280;18191;51.288;12.390;2022-10-16T14:41:31;49148.09;;;-144.47;66.22
31585;BME280;18191;51.288;12.390;2022-10-16T14:46:23;49148.09;;;-144.47;66.29
31585;BME280;18191;51.288;12.390;2022-10-16T14:51:18;49166.00;;;-144.47;67.60
31585;BME280;18191;51.288;12.390;2022-10-16T14:56:14;49154.06;;;-144.47;68.40
31585;BME280;18191;51.288;12.390;2022-10-16T15:01:06;49177.94;;;-144.47;67.98
31585;BME280;18191;51.288;12.390;2022-10-16T15:05:58;49098.34;;;-144.47;66.97
31585;BME280;18191;51.288;12.390;2022-10-16T15:10:48;49148.09;;;-144.47;66.87
31585;BME280;18191;51.288;12.390;2022-10-16T15:15:45;49160.03;;;-144.47;67.69
31585;BME280;18191;51.288;12.390;2022-10-16T15:20:37;49136.16;;;-144.47;67.78
31585;BME280;18191;51.288;12.390;2022-10-16T15:25:35;49124.22;;;-144.47;68.91
31585;BME280;18191;51.288;12.390;2022-10-16T15:30:30;49185.88;;;-144.47;70.12
31585;BME280;18191;51.288;12.390;2022-10-16T15:35:20;49124.22;;;-144.47;71.64
31585;BME280;18191;51.288;12.390;2022-10-16T15:40:11;49160.03;;;-144.47;71.88
31585;BME280;18191;51.288;12.390;2022-10-16T15:45:01;49152.06;;;-144.47;72.56
31585;BME280;18191;51.288;12.390;2022-10-16T15:49:51;49181.91;;;-144.47;73.97
31585;BME280;18191;51.288;12.390;2022-10-16T15:54:42;49150.06;;;-144.47;74.66
31585;BME280;18191;51.288;12.390;2022-10-16T15:59:32;49164.00;;;-144.47;75.30
31585;BME280;18191;51.288;12.390;2022-10-16T16:04:22;49160.03;;;-144.47;76.23
31585;BME280;18191;51.288;12.390;2022-10-16T16:09:13;49179.91;;;-144.47;77.05
31585;BME280;18191;51.288;12.390;2022-10-16T16:14:04;49183.91;;;-144.47;77.96
31585;BME280;18191;51.288;12.390;2022-10-16T16:18:54;49160.03;;;-144.47;78.63
31585;BME280;18191;51.288;12.390;2022-10-16T16:23:45;49154.06;;;-144.47;78.91
31585;BME280;18191;51.288;12.390;2022-10-16T16:28:35;49187.88;;;-144.47;79.31
31585;BME280;18191;51.288;12.390;2022-10-16T16:33:25;49183.91;;;-144.47;80.18
31585;BME280;18191;51.288;12.390;2022-10-16T16:38:16;49215.72;;;-144.47;81.54
31585;BME280;18191;51.288;12.390;2022-10-16T16:43:06;49199.81;;;-144.47;81.90
31585;BME280;18191;51.288;12.390;2022-10-16T16:47:56;49160.03;;;-144.47;80.88
31585;BME280;18191;51.288;12.390;2022-10-16T16:52:46;49124.22;;;-144.47;81.79
31585;BME280;18191;51.288;12.390;2022-10-16T16:57:36;49183.91;;;-144.47;82.18
31585;BME280;18191;51.288;12.390;2022-10-16T17:02:27;49171.97;;;-144.47;82.24
31585;BME280;18191;51.288;12.390;2022-10-16T17:07:17;49167.97;;;-144.47;83.06
31585;BME280;18191;51.288;12.390;2022-10-16T17:12:07;49195.84;;;-144.47;83.24
31585;BME280;18191;51.288;12.390;2022-10-16T17:16:57;49227.66;;;-144.47;84.15
31585;BME280;18191;51.288;12.390;2022-10-16T17:21:48;49164.00;;;-144.47;84.14
31585;BME280;18191;51.288;12.390;2022-10-16T17:26:38;49160.03;;;-144.47;84.42
31585;BME280;18191;51.288;12.390;2022-10-16T17:31:31;49171.97;;;-144.47;84.74
31585;BME280;18191;51.288;12.390;2022-10-16T17:36:22;49175.94;;;-144.47;84.92
31585;BME280;18191;51.288;12.390;2022-10-16T17:41:16;49191.84;;;-144.47;84.87
31585;BME280;18191;51.288;12.390;2022-10-16T17:46:08;49171.97;;;-144.47;85.78
31585;BME280;18191;51.288;12.390;2022-10-16T17:50:58;49203.78;;;-144.47;86.06
31585;BME280;18191;51.288;12.390;2022-10-16T17:55:48;49173.94;;;-144.47;84.67
31585;BME280;18191;51.288;12.390;2022-10-16T18:00:39;49173.94;;;-144.47;86.31
31585;BME280;18191;51.288;12.390;2022-10-16T18:05:29;49211.75;;;-144.47;87.06
31585;BME280;18191;51.288;12.390;2022-10-16T18:10:19;49171.97;;;-144.47;87.97
31585;BME280;18191;51.288;12.390;2022-10-16T18:15:09;49175.94;;;-144.47;87.72
31585;BME280;18191;51.288;12.390;2022-10-16T18:20:00;49195.84;;;-144.47;87.69
31585;BME280;18191;51.288;12.390;2022-10-16T18:24:50;49175.94;;;-144.47;87.74
31585;BME280;18191;51.288;12.390;2022-10-16T18:29:40;49160.03;;;-144.47;87.48
31585;BME280;18191;51.288;12.390;2022-10-16T18:34:32;49171.97;;;-144.47;87.79
31585;BME280;18191;51.288;12.390;2022-10-16T18:39:24;49189.88;;;-144.47;88.44
31585;BME280;18191;51.288;12.390;2022-10-16T18:44:14;49179.91;;;-144.47;88.43
31585;BME280;18191;51.288;12.390;2022-10-16T18:49:05;49183.91;;;-144.47;88.20
31585;BME280;18191;51.288;12.390;2022-10-16T18:53:56;49203.78;;;-144.47;88.54
31585;BME280;18191;51.288;12.390;2022-10-16T18:58:47;49175.94;;;-144.47;89.22
31585;BME280;18191;51.288;12.390;2022-10-16T19:03:38;49171.97;;;-144.47;88.84
31585;BME280;18191;51.288;12.390;2022-10-16T19:08:29;49175.94;;;-144.47;89.07
31585;BME280;18191;51.288;12.390;2022-10-16T19:13:21;49183.91;;;-144.47;89.04
31585;BME280;18191;51.288;12.390;2022-10-16T19:18:11;49164.00;;;-144.47;88.98
31585;BME280;18191;51.288;12.390;2022-10-16T19:23:01;49183.91;;;-144.47;88.59
31585;BME280;18191;51.288;12.390;2022-10-16T19:27:53;49148.09;;;-144.47;89.33
31585;BME280;18191;51.288;12.390;2022-10-16T19:32:44;49169.97;;;-144.47;90.25
31585;BME280;18191;51.288;12.390;2022-10-16T19:37:35;49167.97;;;-144.47;89.64
31585;BME280;18191;51.288;12.390;2022-10-16T19:42:25;49171.97;;;-144.47;90.18
31585;BME280;18191;51.288;12.390;2022-10-16T19:47:16;49171.97;;;-144.47;90.38
31585;BME280;18191;51.288;12.390;2022-10-16T19:52:06;49171.97;;;-144.47;89.50
31585;BME280;18191;51.288;12.390;2022-10-16T19:56:56;49166.00;;;-144.47;89.76
31585;BME280;18191;51.288;12.390;2022-10-16T20:01:49;49187.88;;;-144.47;90.63
31585;BME280;18191;51.288;12.390;2022-10-16T20:06:40;49191.84;;;-144.47;90.84
31585;BME280;18191;51.288;12.390;2022-10-16T20:11:30;49167.97;;;-144.47;90.87
31585;BME280;18191;51.288;12.390;2022-10-16T20:16:21;49158.03;;;-144.47;90.85
31585;BME280;18191;51.288;12.390;2022-10-16T20:21:12;49211.75;;;-144.47;91.19
31585;BME280;18191;51.288;12.390;2022-10-16T20:26:03;49195.84;;;-144.47;90.87
31585;BME280;18191;51.288;12.390;2022-10-16T20:30:53;49166.00;;;-144.47;90.61
31585;BME280;18191;51.288;12.390;2022-10-16T20:35:44;49203.78;;;-144.47;91.08
31585;BME280;18191;51.288;12.390;2022-10-16T20:40:35;49183.91;;;-144.47;92.05
31585;BME280;18191;51.288;12.390;2022-10-16T20:45:25;49187.88;;;-144.47;91.85
31585;BME280;18191;51.288;12.390;2022-10-16T20:50:16;49154.06;;;-144.47;92.79
31585;BME280;18191;51.288;12.390;2022-10-16T20:55:06;49167.97;;;-144.47;92.80
31585;BME280;18191;51.288;12.390;2022-10-16T20:59:57;49136.16;;;-144.47;92.38
31585;BME280;18191;51.288;12.390;2022-10-16T21:04:47;49156.03;;;-144.47;92.96
31585;BME280;18191;51.288;12.390;2022-10-16T21:09:38;49171.97;;;-144.47;92.94
31585;BME280;18191;51.288;12.390;2022-10-16T21:14:29;49187.88;;;-144.47;92.56
31585;BME280;18191;51.288;12.390;2022-10-16T21:19:19;49169.97;;;-144.47;92.58
31585;BME280;18191;51.288;12.390;2022-10-16T21:24:10;49171.97;;;-144.47;93.79
31585;BME280;18191;51.288;12.390;2022-10-16T21:29:01;49144.09;;;-144.47;93.93
31585;BME280;18191;51.288;12.390;2022-10-16T21:33:51;49164.00;;;-144.47;93.56
31585;BME280;18191;51.288;12.390;2022-10-16T21:38:42;49179.91;;;-144.47;93.01
31585;BME280;18191;51.288;12.390;2022-10-16T21:43:32;49171.97;;;-144.47;92.91
31585;BME280;18191;51.288;12.390;2022-10-16T21:48:22;49156.03;;;-144.47;93.46
31585;BME280;18191;51.288;12.390;2022-10-16T21:53:13;49132.16;;;-144.47;93.44
31585;BME280;18191;51.288;12.390;2022-10-16T21:58:03;49156.03;;;-144.47;93.64
31585;BME280;18191;51.288;12.390;2022-10-16T22:02:53;49175.94;;;-144.47;93.44
31585;BME280;18191;51.288;12.390;2022-10-16T22:07:47;49164.00;;;-144.47;93.24
31585;BME280;18191;51.288;12.390;2022-10-16T22:12:37;49189.88;;;-144.47;93.20
31585;BME280;18191;51.288;12.390;2022-10-16T22:17:28;49181.91;;;-144.47;92.86
31585;BME280;18191;51.288;12.390;2022-10-16T22:22:19;49128.19;;;-144.47;92.87
31585;BME280;18191;51.288;12.390;2022-10-16T22:27:09;49199.81;;;-144.47;92.18
31585;BME280;18191;51.288;12.390;2022-10-16T22:31:59;49213.75;;;-144.47;92.71
31585;BME280;18191;51.288;12.390;2022-10-16T22:36:49;49175.94;;;-144.47;92.73
31585;BME280;18191;51.288;12.390;2022-10-16T22:41:39;49152.06;;;-144.47;92.97
31585;BME280;18191;51.288;12.390;2022-10-16T22:46:30;49175.94;;;-144.47;92.91
31585;BME280;18191;51.288;12.390;2022-10-16T22:51:20;49185.88;;;-144.47;92.80
31585;BME280;18191;51.288;12.390;2022-10-16T22:56:11;49167.97;;;-144.47;92.57
31585;BME280;18191;51.288;12.390;2022-10-16T23:01:02;49156.03;;;-144.47;92.80
31585;BME280;18191;51.288;12.390;2022-10-16T23:05:52;49189.88;;;-144.47;93.55
31585;BME280;18191;51.288;12.390;2022-10-16T23:10:43;49167.97;;;-144.47;93.65
31585;BME280;18191;51.288;12.390;2022-10-16T23:15:37;49171.97;;;-144.47;93.96
31585;BME280;18191;51.288;12.390;2022-10-16T23:20:28;49183.91;;;-144.47;94.19
31585;BME280;18191;51.288;12.390;2022-10-16T23:25:18;49209.75;;;-144.47;94.37
31585;BME280;18191;51.288;12.390;2022-10-16T23:30:08;49171.97;;;-144.47;94.35
31585;BME280;18191;51.288;12.390;2022-10-16T23:34:58;49164.00;;;-144.47;94.40
31585;BME280;18191;51.288;12.390;2022-10-16T23:39:49;49223.69;;;-144.47;94.67
31585;BME280;18191;51.288;12.390;2022-10-16T23:44:39;49179.91;;;-144.47;94.66
31585;BME280;18191;51.288;12.390;2022-10-16T23:49:29;49175.94;;;-144.47;94.69
31585;BME280;18191;51.288;12.390;2022-10-16T23:54:20;49136.16;;;-144.47;94.59
31585;BME280;18191;51.288;12.390;2022-10-16T23:59:10;49164.00;;;-144.47;94.97
